createdAt,value
2023-03-02T00:00:45.358Z,12.50
2023-03-02T00:01:52.681Z,12.52
2023-03-02T00:02:54.569Z,14.27
2023-03-02T00:03:59.476Z,17.58
2023-03-02T00:05:01.858Z,28.77
2023-03-02T00:06:04.247Z,29.00
2023-03-02T00:07:10.737Z,23.67
2023-03-02T00:08:15.672Z,18.45
2023-03-02T00:09:17.856Z,14.57
2023-03-02T00:10:19.780Z,12.20
2023-03-02T00:11:22.294Z,12.15
2023-03-02T00:12:27.075Z,11.20
2023-03-02T00:13:30.700Z,11.38
2023-03-02T00:14:32.661Z,10.57
2023-03-02T00:15:34.541Z,11.10
2023-03-02T00:16:36.544Z,10.77
2023-03-02T00:17:38.722Z,12.13
2023-03-02T00:18:40.574Z,11.05
2023-03-02T00:19:42.503Z,11.02
2023-03-02T00:20:44.351Z,10.60
2023-03-02T00:21:46.289Z,11.43
2023-03-02T00:22:48.616Z,11.18
2023-03-02T00:23:51.992Z,11.00
2023-03-02T00:24:53.962Z,11.88
2023-03-02T00:25:55.840Z,10.38
2023-03-02T00:26:57.800Z,11.88
2023-03-02T00:27:59.982Z,10.45
2023-03-02T00:29:02.566Z,12.15
2023-03-02T00:30:05.249Z,11.07
2023-03-02T00:31:07.380Z,11.07
2023-03-02T00:32:09.450Z,11.12
2023-03-02T00:33:11.815Z,11.38
2023-03-02T00:34:13.683Z,11.40
2023-03-02T00:35:16.170Z,12.18
2023-03-02T00:36:20.609Z,11.90
2023-03-02T00:37:22.548Z,12.15
2023-03-02T00:38:24.820Z,11.48
2023-03-02T00:39:26.689Z,11.00
2023-03-02T00:40:28.617Z,10.90
2023-03-02T00:41:30.739Z,11.77
2023-03-02T00:42:33.706Z,11.65
2023-03-02T00:43:35.866Z,10.90
2023-03-02T00:44:37.710Z,11.10
2023-03-02T00:45:39.626Z,11.52
2023-03-02T00:46:41.499Z,10.85
2023-03-02T00:47:43.364Z,11.35
2023-03-02T00:48:46.253Z,11.35
2023-03-02T00:49:49.539Z,10.63
2023-03-02T00:50:51.462Z,12.07
2023-03-02T00:51:53.451Z,10.30
2023-03-02T00:52:55.504Z,11.07
2023-03-02T00:53:57.699Z,10.80
2023-03-02T00:54:59.666Z,10.90
2023-03-02T00:56:03.145Z,10.55
2023-03-02T00:57:06.378Z,10.73
2023-03-02T00:58:08.330Z,10.93
2023-03-02T00:59:28.565Z,10.90
2023-03-02T01:00:32.700Z,11.55
2023-03-02T01:01:35.022Z,10.90
2023-03-02T01:02:43.919Z,11.52
2023-03-02T01:03:46.920Z,10.48
2023-03-02T01:04:49.644Z,10.98
2023-03-02T01:05:55.390Z,11.55
2023-03-02T01:06:58.789Z,10.68
2023-03-02T01:08:00.620Z,11.32
2023-03-02T01:09:02.629Z,10.80
2023-03-02T01:10:05.262Z,10.13
2023-03-02T01:11:16.725Z,10.38
2023-03-02T01:12:18.940Z,10.93
2023-03-02T01:13:21.651Z,10.50
2023-03-02T01:14:24.512Z,10.77
2023-03-02T01:15:26.661Z,11.00
2023-03-02T01:16:28.491Z,10.60
2023-03-02T01:17:30.357Z,11.00
2023-03-02T01:18:33.033Z,10.73
2023-03-02T01:19:35.260Z,10.88
2023-03-02T01:20:37.528Z,11.20
2023-03-02T01:21:39.873Z,10.73
2023-03-02T01:22:43.410Z,10.45
2023-03-02T01:23:45.327Z,10.65
2023-03-02T01:24:47.370Z,10.73
2023-03-02T01:25:49.770Z,10.15
2023-03-02T01:26:51.681Z,10.77
2023-03-02T01:27:53.876Z,10.35
2023-03-02T01:28:55.863Z,10.57
2023-03-02T01:29:57.898Z,10.35
2023-03-02T01:31:02.750Z,10.57
2023-03-02T01:32:05.372Z,11.10
2023-03-02T01:33:07.326Z,10.35
2023-03-02T01:34:09.292Z,10.23
2023-03-02T01:35:11.260Z,10.13
2023-03-02T01:36:13.513Z,10.90
2023-03-02T01:37:15.420Z,9.98
2023-03-02T01:38:17.385Z,9.82
2023-03-02T01:39:22.419Z,9.63
2023-03-02T01:40:25.745Z,9.80
2023-03-02T01:41:28.336Z,9.75
2023-03-02T01:42:38.507Z,10.77
2023-03-02T01:43:40.406Z,9.88
2023-03-02T01:44:50.149Z,10.77
2023-03-02T01:45:59.252Z,10.00
2023-03-02T01:47:13.858Z,10.63
2023-03-02T01:48:23.742Z,10.23
2023-03-02T01:49:26.307Z,9.68
2023-03-02T01:50:29.139Z,10.48
2023-03-02T01:51:35.646Z,10.60
2023-03-02T01:52:38.640Z,10.20
2023-03-02T01:53:46.585Z,10.00
2023-03-02T01:54:50.327Z,9.82
2023-03-02T01:55:52.819Z,10.20
2023-03-02T01:57:02.391Z,9.88
2023-03-02T01:58:06.124Z,9.48
2023-03-02T01:59:16.706Z,10.73
2023-03-02T02:00:24.763Z,10.07
2023-03-02T02:01:27.147Z,10.02
2023-03-02T02:02:29.338Z,11.07
2023-03-02T02:03:31.789Z,10.20
2023-03-02T02:04:37.703Z,9.50
2023-03-02T02:05:42.970Z,10.43
2023-03-02T02:06:50.421Z,10.73
2023-03-02T02:07:52.420Z,10.43
2023-03-02T02:08:57.439Z,10.43
2023-03-02T02:10:00.698Z,10.23
2023-03-02T02:11:02.610Z,10.07
2023-03-02T02:12:05.917Z,11.12
2023-03-02T02:13:11.758Z,9.25
2023-03-02T02:14:13.721Z,10.52
2023-03-02T02:15:15.732Z,9.73
2023-03-02T02:16:18.274Z,10.45
2023-03-02T02:17:20.932Z,9.77
2023-03-02T02:18:23.253Z,10.40
2023-03-02T02:20:00.566Z,10.75
2023-03-02T02:21:02.431Z,10.00
2023-03-02T02:22:04.473Z,10.93
2023-03-02T02:23:25.840Z,10.45
2023-03-02T02:24:46.046Z,10.90
2023-03-02T02:25:53.495Z,10.75
2023-03-02T02:26:57.760Z,9.73
2023-03-02T02:27:59.781Z,9.77
2023-03-02T02:29:12.384Z,11.57
2023-03-02T02:30:16.312Z,10.68
2023-03-02T02:31:38.088Z,11.25
2023-03-02T02:32:41.689Z,10.65
2023-03-02T02:33:49.452Z,10.95
2023-03-02T02:34:59.422Z,10.90
2023-03-02T02:36:10.199Z,10.98
2023-03-02T02:37:16.936Z,11.73
2023-03-02T02:38:21.367Z,12.48
2023-03-02T02:39:31.634Z,12.57
2023-03-02T02:40:48.396Z,10.95
2023-03-02T02:41:55.114Z,11.48
2023-03-02T02:42:57.185Z,11.93
2023-03-02T02:43:59.228Z,11.55
2023-03-02T02:45:05.748Z,11.63
2023-03-02T02:46:10.556Z,11.98
2023-03-02T02:47:20.648Z,11.18
2023-03-02T02:48:25.325Z,11.25
2023-03-02T02:49:40.122Z,10.82
2023-03-02T02:50:43.149Z,10.43
2023-03-02T02:51:45.386Z,10.93
2023-03-02T02:52:55.545Z,10.60
2023-03-02T02:53:59.146Z,10.80
2023-03-02T02:55:02.291Z,11.70
2023-03-02T02:56:07.171Z,10.65
2023-03-02T02:57:12.320Z,11.45
2023-03-02T02:58:20.166Z,11.12
2023-03-02T02:59:29.776Z,12.07
2023-03-02T03:00:32.106Z,12.63
2023-03-02T03:01:34.857Z,11.30
2023-03-02T03:02:44.192Z,10.95
2023-03-02T03:03:52.754Z,10.75
2023-03-02T03:05:04.791Z,10.45
2023-03-02T03:06:13.629Z,10.68
2023-03-02T03:07:24.692Z,11.65
2023-03-02T03:08:53.077Z,11.25
2023-03-02T03:10:16.197Z,10.35
2023-03-02T03:11:26.457Z,9.82
2023-03-02T03:12:31.810Z,9.48
2023-03-02T03:13:34.187Z,9.27
2023-03-02T03:14:40.374Z,8.57
2023-03-02T03:15:42.988Z,8.88
2023-03-02T03:16:46.551Z,8.27
2023-03-02T03:17:55.125Z,8.32
2023-03-02T03:19:01.693Z,8.50
2023-03-02T03:20:09.101Z,7.78
2023-03-02T03:21:11.476Z,8.07
2023-03-02T03:22:15.959Z,7.80
2023-03-02T03:23:18.279Z,7.85
2023-03-02T03:24:20.759Z,7.35
2023-03-02T03:25:26.791Z,7.78
2023-03-02T03:26:29.820Z,7.97
2023-03-02T03:27:32.225Z,6.85
2023-03-02T03:28:36.005Z,6.55
2023-03-02T03:29:41.441Z,7.30
2023-03-02T03:30:44.400Z,6.97
2023-03-02T03:31:47.201Z,8.07
2023-03-02T03:32:49.376Z,7.18
2023-03-02T03:33:52.599Z,6.90
2023-03-02T03:34:54.733Z,7.45
2023-03-02T03:35:56.872Z,6.70
2023-03-02T03:37:02.199Z,7.50
2023-03-02T03:38:06.661Z,6.82
2023-03-02T03:39:08.615Z,6.87
2023-03-02T03:40:10.890Z,7.87
2023-03-02T03:41:13.174Z,6.60
2023-03-02T03:42:15.566Z,7.57
2023-03-02T03:43:17.769Z,7.62
2023-03-02T03:44:21.370Z,7.50
2023-03-02T03:45:23.313Z,7.20
2023-03-02T03:46:25.458Z,7.57
2023-03-02T03:47:27.646Z,7.35
2023-03-02T03:48:29.685Z,6.78
2023-03-02T03:49:31.590Z,6.40
2023-03-02T03:50:33.548Z,6.90
2023-03-02T03:51:35.755Z,7.18
2023-03-02T03:52:38.397Z,7.30
2023-03-02T03:53:40.854Z,6.75
2023-03-02T03:54:42.715Z,6.28
2023-03-02T03:55:44.660Z,5.90
2023-03-02T03:56:49.136Z,6.22
2023-03-02T03:57:51.501Z,5.47
2023-03-02T03:59:06.224Z,5.78
2023-03-02T04:00:14.836Z,5.70
2023-03-02T04:02:22.893Z,6.75
2023-03-02T04:03:25.528Z,7.30
2023-03-02T04:04:33.684Z,7.37
2023-03-02T04:05:36.980Z,7.53
2023-03-02T04:06:40.063Z,7.18
2023-03-02T04:07:42.030Z,6.68
2023-03-02T04:08:44.048Z,7.37
2023-03-02T04:09:45.993Z,6.85
2023-03-02T04:10:48.085Z,7.32
2023-03-02T04:11:53.305Z,8.15
2023-03-02T04:12:55.854Z,7.30
2023-03-02T04:13:58.302Z,7.43
2023-03-02T04:15:00.758Z,7.10
2023-03-02T04:16:02.953Z,6.85
2023-03-02T04:17:07.109Z,6.60
2023-03-02T04:18:10.457Z,7.35
2023-03-02T04:19:13.669Z,7.07
2023-03-02T04:20:16.586Z,7.12
2023-03-02T04:21:19.568Z,6.85
2023-03-02T04:22:22.108Z,7.43
2023-03-02T04:23:23.989Z,6.62
2023-03-02T04:24:25.977Z,7.90
2023-03-02T04:25:30.316Z,6.95
2023-03-02T04:26:33.869Z,6.97
2023-03-02T04:27:36.450Z,7.32
2023-03-02T04:28:38.786Z,7.15
2023-03-02T04:29:41.410Z,6.95
2023-03-02T04:30:43.492Z,8.15
2023-03-02T04:31:45.909Z,7.53
2023-03-02T04:32:48.183Z,6.90
2023-03-02T04:33:50.243Z,7.57
2023-03-02T04:34:52.204Z,7.68
2023-03-02T04:35:54.682Z,7.72
2023-03-02T04:36:57.246Z,8.02
2023-03-02T04:37:59.501Z,8.30
2023-03-02T04:39:01.374Z,7.32
2023-03-02T04:40:04.352Z,8.05
2023-03-02T04:41:06.329Z,7.70
2023-03-02T04:42:08.235Z,7.85
2023-03-02T04:43:10.375Z,7.05
2023-03-02T04:44:13.331Z,7.53
2023-03-02T04:45:15.291Z,8.13
2023-03-02T04:46:21.764Z,7.87
2023-03-02T04:47:23.879Z,8.40
2023-03-02T04:48:26.285Z,8.20
2023-03-02T04:49:28.185Z,7.85
2023-03-02T04:50:30.680Z,8.95
2023-03-02T04:51:36.892Z,8.73
2023-03-02T04:52:39.231Z,8.80
2023-03-02T04:53:41.506Z,8.63
2023-03-02T04:54:43.419Z,8.85
2023-03-02T04:55:45.480Z,8.10
2023-03-02T04:56:48.625Z,8.40
2023-03-02T04:57:50.612Z,8.65
2023-03-02T04:58:52.804Z,8.93
2023-03-02T04:59:54.644Z,9.30
2023-03-02T05:01:03.615Z,9.98
2023-03-02T05:02:05.672Z,10.48
2023-03-02T05:03:07.741Z,11.63
2023-03-02T05:04:10.208Z,10.88
2023-03-02T05:05:19.047Z,11.68
2023-03-02T05:06:25.231Z,16.37
2023-03-02T05:07:27.139Z,12.18
2023-03-02T05:08:29.713Z,12.35
2023-03-02T05:09:31.939Z,12.00
2023-03-02T05:10:33.858Z,10.93
2023-03-02T05:11:35.756Z,10.32
2023-03-02T05:12:54.724Z,11.07
2023-03-02T05:13:59.565Z,9.88
2023-03-02T05:15:01.697Z,10.98
2023-03-02T05:16:03.856Z,9.93
2023-03-02T05:17:05.791Z,10.82
2023-03-02T05:18:10.858Z,9.80
2023-03-02T05:19:13.508Z,10.15
2023-03-02T05:20:15.972Z,10.10
2023-03-02T05:21:18.790Z,10.38
2023-03-02T05:22:20.635Z,9.77
2023-03-02T05:23:27.165Z,10.00
2023-03-02T05:24:29.076Z,10.20
2023-03-02T05:25:33.555Z,10.93
2023-03-02T05:26:35.759Z,11.50
2023-03-02T05:27:37.819Z,11.00
2023-03-02T05:28:41.487Z,10.85
2023-03-02T05:29:43.410Z,11.23
2023-03-02T05:30:46.249Z,10.32
2023-03-02T05:31:48.894Z,10.10
2023-03-02T05:32:51.898Z,10.77
2023-03-02T05:33:53.778Z,10.23
2023-03-02T05:34:55.762Z,10.52
2023-03-02T05:35:58.550Z,9.88
2023-03-02T05:37:00.510Z,11.27
2023-03-02T05:38:02.408Z,10.25
2023-03-02T05:39:05.456Z,11.30
2023-03-02T05:40:09.656Z,10.77
2023-03-02T05:41:12.108Z,11.48
2023-03-02T05:42:14.195Z,11.00
2023-03-02T05:43:18.712Z,11.43
2023-03-02T05:44:20.607Z,12.10
2023-03-02T05:45:35.167Z,12.18
2023-03-02T05:46:38.239Z,15.23
2023-03-02T05:47:40.174Z,16.98
2023-03-02T05:48:42.515Z,26.60
2023-03-02T05:49:44.683Z,23.25
2023-03-02T05:50:46.628Z,30.98
2023-03-02T05:51:48.836Z,30.15
2023-03-02T05:52:50.926Z,29.65
2023-03-02T05:53:52.967Z,29.80
2023-03-02T05:54:54.951Z,25.17
2023-03-02T05:55:57.006Z,25.40
2023-03-02T05:56:59.197Z,23.38
2023-03-02T05:58:01.053Z,20.25
2023-03-02T05:59:02.988Z,17.67
2023-03-02T06:00:05.980Z,17.62
2023-03-02T06:01:15.532Z,15.70
2023-03-02T06:02:18.304Z,15.60
2023-03-02T06:03:20.318Z,14.25
2023-03-02T06:04:22.252Z,12.27
2023-03-02T06:05:24.681Z,12.32
2023-03-02T06:06:26.577Z,11.60
2023-03-02T06:07:29.946Z,11.38
2023-03-02T06:08:31.895Z,12.27
2023-03-02T06:09:33.966Z,15.27
2023-03-02T06:10:36.332Z,21.45
2023-03-02T06:11:38.179Z,23.17
2023-03-02T06:12:40.613Z,21.20
2023-03-02T06:13:42.535Z,18.33
2023-03-02T06:14:44.537Z,16.30
2023-03-02T06:15:46.841Z,14.98
2023-03-02T06:16:49.020Z,15.48
2023-03-02T06:17:51.264Z,14.82
2023-03-02T06:18:53.124Z,11.57
2023-03-02T06:19:55.040Z,13.85
2023-03-02T06:20:57.039Z,15.20
2023-03-02T06:21:58.947Z,14.18
2023-03-02T06:23:01.465Z,14.40
2023-03-02T06:24:03.396Z,13.80
2023-03-02T06:25:05.622Z,14.77
2023-03-02T06:26:12.030Z,14.90
2023-03-02T06:27:14.860Z,15.55
2023-03-02T06:28:19.900Z,15.45
2023-03-02T06:29:22.650Z,15.63
2023-03-02T06:30:25.966Z,16.77
2023-03-02T06:31:28.035Z,15.65
2023-03-02T06:32:34.174Z,16.48
2023-03-02T06:33:36.430Z,15.93
2023-03-02T06:34:38.287Z,15.50
2023-03-02T06:35:40.314Z,15.85
2023-03-02T06:36:42.277Z,16.15
2023-03-02T06:37:44.736Z,15.52
2023-03-02T06:38:47.045Z,15.55
2023-03-02T06:39:48.919Z,16.48
2023-03-02T06:40:50.777Z,16.45
2023-03-02T06:41:52.651Z,14.23
2023-03-02T06:42:54.586Z,14.00
2023-03-02T06:43:57.167Z,12.90
2023-03-02T06:44:59.172Z,13.55
2023-03-02T06:46:02.018Z,12.43
2023-03-02T06:47:03.945Z,12.63
2023-03-02T06:48:07.588Z,10.98
2023-03-02T06:49:12.487Z,11.88
2023-03-02T06:50:15.907Z,10.75
2023-03-02T06:51:18.132Z,11.12
2023-03-02T06:52:20.092Z,11.73
2023-03-02T06:53:23.406Z,11.70
2023-03-02T06:54:25.600Z,11.12
2023-03-02T06:55:27.629Z,10.68
2023-03-02T06:56:29.514Z,11.20
2023-03-02T06:57:34.236Z,10.57
2023-03-02T06:58:37.268Z,9.77
2023-03-02T06:59:39.500Z,11.60
2023-03-02T07:00:41.623Z,9.95
2023-03-02T07:01:43.778Z,10.65
2023-03-02T07:02:45.688Z,7.72
2023-03-02T07:03:47.878Z,7.07
2023-03-02T07:04:50.151Z,9.45
2023-03-02T07:05:52.290Z,9.50
2023-03-02T07:06:54.571Z,8.13
2023-03-02T07:07:56.418Z,6.62
2023-03-02T07:08:58.259Z,8.48
2023-03-02T07:10:00.386Z,8.50
2023-03-02T07:11:06.590Z,5.30
2023-03-02T07:12:08.478Z,7.57
2023-03-02T07:13:10.345Z,6.62
2023-03-02T07:14:12.212Z,6.53
2023-03-02T07:15:15.773Z,7.03
2023-03-02T07:16:17.744Z,6.87
2023-03-02T07:17:19.765Z,6.95
2023-03-02T07:18:21.773Z,6.82
2023-03-02T07:19:23.694Z,5.20
2023-03-02T07:20:25.890Z,5.55
2023-03-02T07:21:27.848Z,5.03
2023-03-02T07:22:29.724Z,4.90
2023-03-02T07:23:31.839Z,4.87
2023-03-02T07:24:33.913Z,4.97
2023-03-02T07:25:37.060Z,4.50
2023-03-02T07:26:39.108Z,4.40
2023-03-02T07:27:41.253Z,4.57
2023-03-02T07:28:44.506Z,4.25
2023-03-02T07:29:46.557Z,4.00
2023-03-02T07:30:48.914Z,4.43
2023-03-02T07:31:56.998Z,4.30
2023-03-02T07:32:58.998Z,4.12
2023-03-02T07:34:00.933Z,4.10
2023-03-02T07:35:03.211Z,3.92
2023-03-02T07:36:07.184Z,4.10
2023-03-02T07:37:09.148Z,4.65
2023-03-02T07:38:11.020Z,4.37
2023-03-02T07:39:12.881Z,4.40
2023-03-02T07:40:15.766Z,4.05
2023-03-02T07:41:18.167Z,4.10
2023-03-02T07:42:20.126Z,4.70
2023-03-02T07:43:25.471Z,4.35
2023-03-02T07:44:28.131Z,3.92
2023-03-02T07:45:30.167Z,4.18
2023-03-02T07:46:32.378Z,4.70
2023-03-02T07:47:34.376Z,4.07
2023-03-02T07:48:36.673Z,4.75
2023-03-02T07:49:38.919Z,4.47
2023-03-02T07:50:40.866Z,4.85
2023-03-02T07:51:43.069Z,6.07
2023-03-02T07:52:44.965Z,5.70
2023-03-02T07:53:46.921Z,5.10
2023-03-02T07:54:49.015Z,4.18
2023-03-02T07:55:50.875Z,3.83
2023-03-02T07:56:53.107Z,3.78
2023-03-02T07:57:54.967Z,3.92
2023-03-02T07:58:56.940Z,4.70
2023-03-02T07:59:58.812Z,4.10
2023-03-02T08:01:00.779Z,4.40
2023-03-02T08:02:03.149Z,4.30
2023-03-02T08:03:05.140Z,3.83
2023-03-02T08:04:07.074Z,3.42
2023-03-02T08:05:13.091Z,3.83
2023-03-02T08:06:14.992Z,3.90
2023-03-02T08:07:17.190Z,4.10
2023-03-02T08:08:19.086Z,4.00
2023-03-02T08:09:20.930Z,4.50
2023-03-02T08:10:23.162Z,4.18
2023-03-02T08:11:25.029Z,4.93
2023-03-02T08:12:28.188Z,4.72
2023-03-02T08:13:30.064Z,5.75
2023-03-02T08:14:32.358Z,4.85
2023-03-02T08:15:34.346Z,5.18
2023-03-02T08:16:36.330Z,4.93
2023-03-02T08:17:38.579Z,4.62
2023-03-02T08:18:41.740Z,4.47
2023-03-02T08:19:43.611Z,4.62
2023-03-02T08:20:45.492Z,4.10
2023-03-02T08:21:47.313Z,4.68
2023-03-02T08:22:50.182Z,4.95
2023-03-02T08:23:52.907Z,4.82
2023-03-02T08:24:55.018Z,5.25
2023-03-02T08:25:57.024Z,4.60
2023-03-02T08:27:03.081Z,4.45
2023-03-02T08:28:05.287Z,4.32
2023-03-02T08:29:07.316Z,4.28
2023-03-02T08:30:10.722Z,4.30
2023-03-02T08:31:13.828Z,4.32
2023-03-02T08:32:15.850Z,4.78
2023-03-02T08:33:18.133Z,4.07
2023-03-02T08:34:20.044Z,3.90
2023-03-02T08:35:22.288Z,4.10
2023-03-02T08:36:24.222Z,3.70
2023-03-02T08:37:26.220Z,4.50
2023-03-02T08:38:29.394Z,4.72
2023-03-02T08:39:32.195Z,4.53
2023-03-02T08:40:34.908Z,5.00
2023-03-02T08:41:36.841Z,4.45
2023-03-02T08:42:38.726Z,4.12
2023-03-02T08:43:41.092Z,5.10
2023-03-02T08:44:43.164Z,4.55
2023-03-02T08:45:45.608Z,3.60
2023-03-02T08:46:50.637Z,4.65
2023-03-02T08:47:55.680Z,3.70
2023-03-02T08:48:57.882Z,4.28
2023-03-02T08:49:59.826Z,3.90
2023-03-02T08:51:10.198Z,4.15
2023-03-02T08:52:15.281Z,4.95
2023-03-02T08:53:17.353Z,3.80
2023-03-02T08:54:20.771Z,4.70
2023-03-02T08:55:22.748Z,4.37
2023-03-02T08:56:30.280Z,4.93
2023-03-02T08:57:32.153Z,4.85
2023-03-02T08:58:34.113Z,5.18
2023-03-02T08:59:36.240Z,4.57
2023-03-02T09:00:38.578Z,4.82
2023-03-02T09:01:41.539Z,4.72
2023-03-02T09:02:43.585Z,4.62
2023-03-02T09:03:45.954Z,5.05
2023-03-02T09:04:48.304Z,4.90
2023-03-02T09:05:51.102Z,4.85
2023-03-02T09:06:53.113Z,4.75
2023-03-02T09:07:55.100Z,4.68
2023-03-02T09:08:57.853Z,5.62
2023-03-02T09:10:00.176Z,5.20
2023-03-02T09:11:02.176Z,5.37
2023-03-02T09:12:04.243Z,4.85
2023-03-02T09:13:08.356Z,5.07
2023-03-02T09:14:11.102Z,5.10
2023-03-02T09:15:13.363Z,4.87
2023-03-02T09:16:16.056Z,5.47
2023-03-02T09:17:18.090Z,5.20
2023-03-02T09:18:20.089Z,5.18
2023-03-02T09:19:22.127Z,5.45
2023-03-02T09:20:24.707Z,5.18
2023-03-02T09:21:26.724Z,5.97
2023-03-02T09:22:28.894Z,4.78
2023-03-02T09:23:31.289Z,5.53
2023-03-02T09:24:33.238Z,5.65
2023-03-02T09:25:35.529Z,5.97
2023-03-02T09:26:39.120Z,5.82
2023-03-02T09:27:41.813Z,5.62
2023-03-02T09:28:43.925Z,5.82
2023-03-02T09:29:45.833Z,5.72
2023-03-02T09:30:50.130Z,5.93
2023-03-02T09:31:52.219Z,5.57
2023-03-02T09:32:54.478Z,5.50
2023-03-02T09:33:57.174Z,5.65
2023-03-02T09:34:59.011Z,7.05
2023-03-02T09:36:06.067Z,6.22
2023-03-02T09:37:07.914Z,6.18
2023-03-02T09:38:12.947Z,5.85
2023-03-02T09:39:14.962Z,6.53
2023-03-02T09:40:20.504Z,6.22
2023-03-02T09:41:22.641Z,5.25
2023-03-02T09:42:44.118Z,6.07
2023-03-02T09:43:52.211Z,6.22
2023-03-02T09:45:02.888Z,6.12
2023-03-02T09:46:10.780Z,5.72
2023-03-02T09:47:35.439Z,6.47
2023-03-02T09:48:45.652Z,6.62
2023-03-02T09:50:05.597Z,7.15
2023-03-02T09:51:16.729Z,6.40
2023-03-02T09:52:44.947Z,6.82
2023-03-02T09:54:03.345Z,5.68
2023-03-02T09:55:18.419Z,7.03
2023-03-02T09:56:21.783Z,6.82
2023-03-02T09:57:35.089Z,6.62
2023-03-02T09:58:39.623Z,6.70
2023-03-02T09:59:51.815Z,6.40
2023-03-02T10:00:53.829Z,6.55
2023-03-02T10:02:19.028Z,6.78
2023-03-02T10:03:23.759Z,6.40
2023-03-02T10:04:29.236Z,6.50
2023-03-02T10:05:37.644Z,7.32
2023-03-02T10:06:39.587Z,6.97
2023-03-02T10:07:42.153Z,7.30
2023-03-02T10:08:44.072Z,6.80
2023-03-02T10:09:46.605Z,6.78
2023-03-02T10:11:00.280Z,6.87
2023-03-02T10:12:52.004Z,7.00
2023-03-02T10:14:06.362Z,7.22
2023-03-02T10:15:22.365Z,6.53
2023-03-02T10:16:41.506Z,6.93
2023-03-02T10:17:52.973Z,7.07
2023-03-02T10:19:13.130Z,7.90
2023-03-02T10:20:22.596Z,6.75
2023-03-02T10:21:34.956Z,7.05
2023-03-02T10:22:48.362Z,7.37
2023-03-02T10:24:14.840Z,7.50
2023-03-02T10:25:48.655Z,7.05
2023-03-02T10:26:55.673Z,7.07
2023-03-02T10:28:22.703Z,7.05
2023-03-02T10:29:30.723Z,7.22
2023-03-02T10:30:37.783Z,6.75
2023-03-02T10:31:41.605Z,6.90
2023-03-02T10:32:47.839Z,7.37
2023-03-02T10:33:49.726Z,7.00
2023-03-02T10:34:53.607Z,7.10
2023-03-02T10:35:55.915Z,6.97
2023-03-02T10:36:58.481Z,7.87
2023-03-02T10:38:11.923Z,6.68
2023-03-02T10:39:16.599Z,7.32
2023-03-02T10:40:43.702Z,7.00
2023-03-02T10:42:03.662Z,6.80
2023-03-02T10:43:11.404Z,7.43
2023-03-02T10:44:22.314Z,7.05
2023-03-02T10:45:32.147Z,6.70
2023-03-02T10:46:46.320Z,6.78
2023-03-02T10:47:48.598Z,6.55
2023-03-02T10:48:52.208Z,7.75
2023-03-02T10:49:55.784Z,6.65
2023-03-02T10:50:59.091Z,6.60
2023-03-02T10:52:06.983Z,6.25
2023-03-02T10:53:17.725Z,6.55
2023-03-02T10:54:19.589Z,6.60
2023-03-02T10:55:21.435Z,6.47
2023-03-02T10:56:23.369Z,7.05
2023-03-02T10:57:25.188Z,7.30
2023-03-02T10:58:33.338Z,6.37
2023-03-02T10:59:43.499Z,6.47
2023-03-02T11:00:59.433Z,6.87
2023-03-02T11:02:03.033Z,6.30
2023-03-02T11:03:20.202Z,6.35
2023-03-02T11:04:22.485Z,6.30
2023-03-02T11:05:36.877Z,6.68
2023-03-02T11:06:38.778Z,5.78
2023-03-02T11:07:40.689Z,5.78
2023-03-02T11:08:42.541Z,6.22
2023-03-02T11:10:02.591Z,5.97
2023-03-02T11:11:04.952Z,6.35
2023-03-02T11:12:14.517Z,5.70
2023-03-02T11:13:20.587Z,6.12
2023-03-02T11:14:25.498Z,5.25
2023-03-02T11:15:40.065Z,5.53
2023-03-02T11:16:42.231Z,5.82
2023-03-02T11:17:46.822Z,5.62
2023-03-02T11:19:16.221Z,5.50
2023-03-02T11:20:25.008Z,5.45
2023-03-02T11:21:40.598Z,5.40
2023-03-02T11:22:54.782Z,5.47
2023-03-02T11:24:15.200Z,5.50
2023-03-02T11:25:30.843Z,5.50
2023-03-02T11:26:41.698Z,5.40
2023-03-02T11:27:45.424Z,4.93
2023-03-02T11:29:03.364Z,5.05
2023-03-02T11:30:19.368Z,5.60
2023-03-02T11:31:40.170Z,5.10
2023-03-02T11:33:12.883Z,5.15
2023-03-02T11:34:31.214Z,5.97
2023-03-02T11:35:58.812Z,5.32
2023-03-02T11:37:17.176Z,5.82
2023-03-02T11:38:54.877Z,6.00
2023-03-02T11:40:09.044Z,4.97
2023-03-02T11:41:24.646Z,5.40
2023-03-02T11:42:36.274Z,5.55
2023-03-02T11:43:38.647Z,6.12
2023-03-02T11:44:47.376Z,5.43
2023-03-02T11:46:13.835Z,5.62
2023-03-02T11:47:22.680Z,6.55
2023-03-02T11:48:37.641Z,6.32
2023-03-02T11:49:45.707Z,5.90
2023-03-02T11:50:59.526Z,6.10
2023-03-02T11:52:02.233Z,5.50
2023-03-02T11:53:08.076Z,5.43
2023-03-02T11:54:41.103Z,5.82
2023-03-02T11:55:48.675Z,5.80
2023-03-02T11:56:50.751Z,6.00
2023-03-02T11:57:56.310Z,5.65
2023-03-02T11:59:03.026Z,5.70
2023-03-02T12:00:16.009Z,5.78
2023-03-02T12:01:23.534Z,6.12
2023-03-02T12:02:27.525Z,6.50
2023-03-02T12:03:32.421Z,6.35
2023-03-02T12:04:37.687Z,5.93
2023-03-02T12:05:40.068Z,6.40
2023-03-02T12:06:45.280Z,6.18
2023-03-02T12:07:57.444Z,5.40
2023-03-02T12:09:31.341Z,6.05
2023-03-02T12:10:40.018Z,5.72
2023-03-02T12:11:46.096Z,6.20
2023-03-02T12:13:03.838Z,6.15
2023-03-02T12:14:45.278Z,6.37
2023-03-02T12:15:56.279Z,6.07
2023-03-02T12:17:18.142Z,6.35
2023-03-02T12:18:23.066Z,6.78
2023-03-02T12:19:38.864Z,5.75
2023-03-02T12:20:43.002Z,5.90
2023-03-02T12:22:02.284Z,5.93
2023-03-02T12:23:10.594Z,6.55
2023-03-02T12:24:25.547Z,6.45
2023-03-02T12:25:37.305Z,5.40
2023-03-02T12:26:39.230Z,5.87
2023-03-02T12:27:42.098Z,5.35
2023-03-02T12:28:44.274Z,5.40
2023-03-02T12:29:49.904Z,5.70
2023-03-02T12:31:08.400Z,5.75
2023-03-02T12:32:33.037Z,6.20
2023-03-02T12:33:47.859Z,6.87
2023-03-02T12:35:08.286Z,6.20
2023-03-02T12:36:15.317Z,6.12
2023-03-02T12:37:21.753Z,5.78
2023-03-02T12:38:33.958Z,5.90
2023-03-02T12:40:18.483Z,7.60
2023-03-02T12:41:42.008Z,6.45
2023-03-02T12:43:01.300Z,6.35
2023-03-02T12:44:31.696Z,5.90
2023-03-02T12:46:00.475Z,5.95
2023-03-02T12:47:04.165Z,5.40
2023-03-02T12:48:38.029Z,5.37
2023-03-02T12:50:02.099Z,5.15
2023-03-02T12:51:05.771Z,5.62
2023-03-02T12:52:26.644Z,6.12
2023-03-02T12:53:29.064Z,5.28
2023-03-02T12:54:34.395Z,5.50
2023-03-02T12:55:38.765Z,5.35
2023-03-02T12:56:40.961Z,5.43
2023-03-02T12:57:55.066Z,5.68
2023-03-02T12:58:56.989Z,5.35
2023-03-02T13:00:01.510Z,5.35
2023-03-02T13:01:04.085Z,5.32
2023-03-02T13:02:35.172Z,5.30
2023-03-02T13:03:47.770Z,4.90
2023-03-02T13:04:57.998Z,5.32
2023-03-02T13:06:11.301Z,5.22
2023-03-02T13:07:22.772Z,5.07
2023-03-02T13:08:28.828Z,5.05
2023-03-02T13:09:31.354Z,5.12
2023-03-02T13:10:52.168Z,5.07
2023-03-02T13:11:55.202Z,5.12
2023-03-02T13:12:59.338Z,5.10
2023-03-02T13:14:04.076Z,5.12
2023-03-02T13:15:15.345Z,5.03
2023-03-02T13:16:22.279Z,5.17
2023-03-02T13:17:31.246Z,5.50
2023-03-02T13:18:36.504Z,4.78
2023-03-02T13:19:38.438Z,5.43
2023-03-02T13:20:41.107Z,5.28
2023-03-02T13:21:43.196Z,4.97
2023-03-02T13:22:45.228Z,5.00
2023-03-02T13:23:50.250Z,4.65
2023-03-02T13:25:02.260Z,5.28
2023-03-02T13:26:05.868Z,5.47
2023-03-02T13:27:15.467Z,4.93
2023-03-02T13:28:30.459Z,4.70
2023-03-02T13:29:32.516Z,4.82
2023-03-02T13:30:47.714Z,4.60
2023-03-02T13:31:50.835Z,4.85
2023-03-02T13:33:00.868Z,4.68
2023-03-02T13:34:02.837Z,4.95
2023-03-02T13:35:17.948Z,4.80
2023-03-02T13:36:26.981Z,4.62
2023-03-02T13:37:35.024Z,4.35
2023-03-02T13:38:37.978Z,4.18
2023-03-02T13:39:39.876Z,4.40
2023-03-02T13:40:48.389Z,4.47
2023-03-02T13:41:58.939Z,4.53
2023-03-02T13:43:01.270Z,4.68
2023-03-02T13:44:19.879Z,4.60
2023-03-02T13:45:24.812Z,4.70
2023-03-02T13:46:29.636Z,4.37
2023-03-02T13:47:31.574Z,4.55
2023-03-02T13:48:34.368Z,4.82
2023-03-02T13:49:37.798Z,4.60
2023-03-02T13:50:39.741Z,4.40
2023-03-02T13:51:45.390Z,4.80
2023-03-02T13:52:48.254Z,4.57
2023-03-02T13:54:00.316Z,4.85
2023-03-02T13:55:02.222Z,4.22
2023-03-02T13:56:04.327Z,4.55
2023-03-02T13:57:06.900Z,4.45
2023-03-02T13:58:16.667Z,4.22
2023-03-02T13:59:21.175Z,5.07
2023-03-02T14:00:36.390Z,4.97
2023-03-02T14:01:38.963Z,4.95
2023-03-02T14:02:45.113Z,4.45
2023-03-02T14:03:47.098Z,5.15
2023-03-02T14:04:49.197Z,4.40
2023-03-02T14:05:52.356Z,4.68
2023-03-02T14:06:55.124Z,4.53
2023-03-02T14:07:57.033Z,4.57
2023-03-02T14:08:59.150Z,4.72
2023-03-02T14:10:01.029Z,6.05
2023-03-02T14:11:04.208Z,5.95
2023-03-02T14:12:07.067Z,6.05
2023-03-02T14:13:14.886Z,5.45
2023-03-02T14:14:27.745Z,5.18
2023-03-02T14:15:29.768Z,5.00
2023-03-02T14:16:34.712Z,5.03
2023-03-02T14:17:36.951Z,5.15
2023-03-02T14:18:40.531Z,4.90
2023-03-02T14:19:42.529Z,4.55
2023-03-02T14:20:44.437Z,4.30
2023-03-02T14:21:46.778Z,3.80
2023-03-02T14:22:50.567Z,4.82
2023-03-02T14:23:54.171Z,5.37
2023-03-02T14:24:56.133Z,4.10